sensor_id;sensor_type;location;lat;lon;timestamp;P1;durP1;ratioP1;P2;durP2;ratioP2
10509;SDS011;5303;53.266;10.410;2022-09-28T00:01:41;5.10;;;4.60;;
10509;SDS011;5303;53.266;10.410;2022-09-28T00:04:07;5.40;;;4.83;;
10509;SDS011;5303;53.266;10.410;2022-09-28T00:06:32;10.23;;;5.00;;
10509;SDS011;5303;53.266;10.410;2022-09-28T00:08:57;6.73;;;5.30;;
10509;SDS011;5303;53.266;10.410;2022-09-28T00:11:23;7.77;;;5.67;;
10509;SDS011;5303;53.266;10.410;2022-09-28T00:13:52;5.50;;;5.00;;
10509;SDS011;5303;53.266;10.410;2022-09-28T00:16:22;7.37;;;5.93;;
10509;SDS011;5303;53.266;10.410;2022-09-28T00:18:49;7.73;;;5.70;;
10509;SDS011;5303;53.266;10.410;2022-09-28T00:21:17;5.60;;;5.10;;
10509;SDS011;5303;53.266;10.410;2022-09-28T00:23:46;5.73;;;5.13;;
10509;SDS011;5303;53.266;10.410;2022-09-28T00:26:30;5.53;;;4.97;;
10509;SDS011;5303;53.266;10.410;2022-09-28T00:28:58;5.70;;;5.20;;
10509;SDS011;5303;53.266;10.410;2022-09-28T00:31:25;6.63;;;4.80;;
10509;SDS011;5303;53.266;10.410;2022-09-28T00:33:53;5.30;;;4.63;;
10509;SDS011;5303;53.266;10.410;2022-09-28T00:36:20;5.57;;;4.77;;
10509;SDS011;5303;53.266;10.410;2022-09-28T00:38:46;4.77;;;4.13;;
10509;SDS011;5303;53.266;10.410;2022-09-28T00:41:12;7.40;;;4.73;;
10509;SDS011;5303;53.266;10.410;2022-09-28T00:43:38;6.20;;;4.60;;
10509;SDS011;5303;53.266;10.410;2022-09-28T00:46:05;5.13;;;4.63;;
10509;SDS011;5303;53.266;10.410;2022-09-28T00:48:36;6.40;;;5.53;;
10509;SDS011;5303;53.266;10.410;2022-09-28T00:51:07;4.77;;;4.37;;
10509;SDS011;5303;53.266;10.410;2022-09-28T00:53:36;5.83;;;4.20;;
10509;SDS011;5303;53.266;10.410;2022-09-28T00:56:07;5.60;;;4.63;;
10509;SDS011;5303;53.266;10.410;2022-09-28T00:58:38;6.73;;;5.60;;
10509;SDS011;5303;53.266;10.410;2022-09-28T01:01:07;5.40;;;4.90;;
10509;SDS011;5303;53.266;10.410;2022-09-28T01:03:32;7.53;;;5.20;;
10509;SDS011;5303;53.266;10.410;2022-09-28T01:05:58;7.30;;;5.67;;
10509;SDS011;5303;53.266;10.410;2022-09-28T01:08:27;6.40;;;5.80;;
10509;SDS011;5303;53.266;10.410;2022-09-28T01:10:56;8.60;;;6.60;;
10509;SDS011;5303;53.266;10.410;2022-09-28T01:13:21;10.10;;;6.50;;
10509;SDS011;5303;53.266;10.410;2022-09-28T01:18:34;8.83;;;6.87;;
10509;SDS011;5303;53.266;10.410;2022-09-28T01:21:19;9.70;;;7.10;;
10509;SDS011;5303;53.266;10.410;2022-09-28T01:23:49;10.03;;;8.30;;
10509;SDS011;5303;53.266;10.410;2022-09-28T01:28:52;11.17;;;9.27;;
10509;SDS011;5303;53.266;10.410;2022-09-28T01:31:28;11.27;;;8.37;;
10509;SDS011;5303;53.266;10.410;2022-09-28T01:34:09;11.60;;;9.13;;
10509;SDS011;5303;53.266;10.410;2022-09-28T01:36:40;10.37;;;8.40;;
10509;SDS011;5303;53.266;10.410;2022-09-28T01:39:14;14.57;;;10.90;;
10509;SDS011;5303;53.266;10.410;2022-09-28T01:41:46;15.07;;;10.80;;
10509;SDS011;5303;53.266;10.410;2022-09-28T01:44:16;15.73;;;10.73;;
10509;SDS011;5303;53.266;10.410;2022-09-28T01:46:45;12.53;;;10.13;;
10509;SDS011;5303;53.266;10.410;2022-09-28T01:49:16;14.70;;;11.60;;
10509;SDS011;5303;53.266;10.410;2022-09-28T01:51:55;17.33;;;11.60;;
10509;SDS011;5303;53.266;10.410;2022-09-28T01:54:37;19.37;;;11.93;;
10509;SDS011;5303;53.266;10.410;2022-09-28T01:57:14;14.03;;;10.70;;
10509;SDS011;5303;53.266;10.410;2022-09-28T02:00:03;15.53;;;11.43;;
10509;SDS011;5303;53.266;10.410;2022-09-28T02:02:32;16.03;;;12.00;;
10509;SDS011;5303;53.266;10.410;2022-09-28T02:05:09;16.77;;;12.57;;
10509;SDS011;5303;53.266;10.410;2022-09-28T02:10:38;13.37;;;11.20;;
10509;SDS011;5303;53.266;10.410;2022-09-28T02:13:11;16.30;;;12.27;;
10509;SDS011;5303;53.266;10.410;2022-09-28T02:15:52;15.83;;;11.77;;
10509;SDS011;5303;53.266;10.410;2022-09-28T02:18:28;18.30;;;12.43;;
10509;SDS011;5303;53.266;10.410;2022-09-28T02:21:04;16.60;;;12.67;;
10509;SDS011;5303;53.266;10.410;2022-09-28T02:23:35;16.60;;;12.63;;
10509;SDS011;5303;53.266;10.410;2022-09-28T02:26:08;19.40;;;13.57;;
10509;SDS011;5303;53.266;10.410;2022-09-28T02:28:36;19.53;;;13.00;;
10509;SDS011;5303;53.266;10.410;2022-09-28T02:31:01;18.30;;;12.90;;
10509;SDS011;5303;53.266;10.410;2022-09-28T02:33:29;21.47;;;13.33;;
10509;SDS011;5303;53.266;10.410;2022-09-28T02:35:59;16.77;;;12.20;;
10509;SDS011;5303;53.266;10.410;2022-09-28T02:38:25;16.33;;;12.17;;
10509;SDS011;5303;53.266;10.410;2022-09-28T02:41:01;17.43;;;12.90;;
10509;SDS011;5303;53.266;10.410;2022-09-28T02:46:24;17.63;;;12.70;;
10509;SDS011;5303;53.266;10.410;2022-09-28T02:49:05;21.70;;;13.23;;
10509;SDS011;5303;53.266;10.410;2022-09-28T02:54:43;20.40;;;12.70;;
10509;SDS011;5303;53.266;10.410;2022-09-28T03:00:16;17.97;;;12.67;;
10509;SDS011;5303;53.266;10.410;2022-09-28T03:08:33;15.67;;;12.00;;
10509;SDS011;5303;53.266;10.410;2022-09-28T03:11:06;17.63;;;12.43;;
10509;SDS011;5303;53.266;10.410;2022-09-28T03:13:37;18.90;;;12.63;;
10509;SDS011;5303;53.266;10.410;2022-09-28T03:16:10;17.77;;;12.27;;
10509;SDS011;5303;53.266;10.410;2022-09-28T03:18:40;18.17;;;12.47;;
10509;SDS011;5303;53.266;10.410;2022-09-28T03:21:06;17.00;;;12.57;;
10509;SDS011;5303;53.266;10.410;2022-09-28T03:23:33;17.20;;;13.00;;
10509;SDS011;5303;53.266;10.410;2022-09-28T03:25:58;18.17;;;12.60;;
10509;SDS011;5303;53.266;10.410;2022-09-28T03:28:24;17.70;;;12.57;;
10509;SDS011;5303;53.266;10.410;2022-09-28T03:30:50;15.60;;;10.67;;
10509;SDS011;5303;53.266;10.410;2022-09-28T03:33:15;16.07;;;11.73;;
10509;SDS011;5303;53.266;10.410;2022-09-28T03:35:40;16.83;;;12.33;;
10509;SDS011;5303;53.266;10.410;2022-09-28T03:38:05;18.47;;;12.80;;
10509;SDS011;5303;53.266;10.410;2022-09-28T03:40:31;17.27;;;12.53;;
10509;SDS011;5303;53.266;10.410;2022-09-28T03:42:56;16.77;;;12.77;;
10509;SDS011;5303;53.266;10.410;2022-09-28T03:45:23;16.40;;;13.20;;
10509;SDS011;5303;53.266;10.410;2022-09-28T03:47:48;18.60;;;12.13;;
10509;SDS011;5303;53.266;10.410;2022-09-28T03:50:14;18.53;;;11.90;;
10509;SDS011;5303;53.266;10.410;2022-09-28T03:52:40;15.87;;;10.60;;
10509;SDS011;5303;53.266;10.410;2022-09-28T03:55:06;17.70;;;11.80;;
10509;SDS011;5303;53.266;10.410;2022-09-28T03:57:31;16.63;;;11.30;;
10509;SDS011;5303;53.266;10.410;2022-09-28T03:59:57;14.53;;;11.43;;
10509;SDS011;5303;53.266;10.410;2022-09-28T04:02:22;14.90;;;11.97;;
10509;SDS011;5303;53.266;10.410;2022-09-28T04:04:49;15.77;;;11.57;;
10509;SDS011;5303;53.266;10.410;2022-09-28T04:07:14;16.20;;;12.37;;
10509;SDS011;5303;53.266;10.410;2022-09-28T04:09:39;17.40;;;12.37;;
10509;SDS011;5303;53.266;10.410;2022-09-28T04:12:05;19.10;;;12.90;;
10509;SDS011;5303;53.266;10.410;2022-09-28T04:14:30;18.63;;;12.33;;
10509;SDS011;5303;53.266;10.410;2022-09-28T04:16:56;19.73;;;13.13;;
10509;SDS011;5303;53.266;10.410;2022-09-28T04:19:21;13.80;;;10.67;;
10509;SDS011;5303;53.266;10.410;2022-09-28T04:21:47;15.60;;;11.07;;
10509;SDS011;5303;53.266;10.410;2022-09-28T04:24:14;15.73;;;11.50;;
10509;SDS011;5303;53.266;10.410;2022-09-28T04:26:40;16.47;;;12.77;;
10509;SDS011;5303;53.266;10.410;2022-09-28T04:29:07;19.13;;;12.70;;
10509;SDS011;5303;53.266;10.410;2022-09-28T04:31:46;17.30;;;12.83;;
10509;SDS011;5303;53.266;10.410;2022-09-28T04:34:14;19.83;;;13.50;;
10509;SDS011;5303;53.266;10.410;2022-09-28T04:36:42;18.83;;;12.73;;
10509;SDS011;5303;53.266;10.410;2022-09-28T04:39:08;19.53;;;13.23;;
10509;SDS011;5303;53.266;10.410;2022-09-28T04:41:34;16.83;;;13.20;;
10509;SDS011;5303;53.266;10.410;2022-09-28T04:44:00;20.33;;;13.30;;
10509;SDS011;5303;53.266;10.410;2022-09-28T04:46:25;22.70;;;15.53;;
10509;SDS011;5303;53.266;10.410;2022-09-28T04:48:51;24.03;;;16.23;;
10509;SDS011;5303;53.266;10.410;2022-09-28T04:51:16;24.90;;;17.00;;
10509;SDS011;5303;53.266;10.410;2022-09-28T04:53:41;22.93;;;15.83;;
10509;SDS011;5303;53.266;10.410;2022-09-28T04:56:11;24.57;;;16.83;;
10509;SDS011;5303;53.266;10.410;2022-09-28T04:58:38;21.63;;;15.47;;
10509;SDS011;5303;53.266;10.410;2022-09-28T05:01:05;23.37;;;15.97;;
10509;SDS011;5303;53.266;10.410;2022-09-28T05:03:33;23.23;;;15.20;;
10509;SDS011;5303;53.266;10.410;2022-09-28T05:05:58;26.83;;;17.17;;
10509;SDS011;5303;53.266;10.410;2022-09-28T05:08:24;25.67;;;16.63;;
10509;SDS011;5303;53.266;10.410;2022-09-28T05:10:55;24.53;;;15.97;;
10509;SDS011;5303;53.266;10.410;2022-09-28T05:13:23;23.60;;;15.60;;
10509;SDS011;5303;53.266;10.410;2022-09-28T05:15:50;22.87;;;16.00;;
10509;SDS011;5303;53.266;10.410;2022-09-28T05:18:17;29.33;;;18.67;;
10509;SDS011;5303;53.266;10.410;2022-09-28T05:20:42;24.73;;;16.60;;
10509;SDS011;5303;53.266;10.410;2022-09-28T05:23:08;25.93;;;17.40;;
10509;SDS011;5303;53.266;10.410;2022-09-28T05:25:40;24.57;;;17.07;;
10509;SDS011;5303;53.266;10.410;2022-09-28T05:28:06;26.20;;;16.73;;
10509;SDS011;5303;53.266;10.410;2022-09-28T05:30:32;21.93;;;15.07;;
10509;SDS011;5303;53.266;10.410;2022-09-28T05:32:58;19.57;;;13.80;;
10509;SDS011;5303;53.266;10.410;2022-09-28T05:35:24;20.70;;;15.37;;
10509;SDS011;5303;53.266;10.410;2022-09-28T05:37:49;20.77;;;15.63;;
10509;SDS011;5303;53.266;10.410;2022-09-28T05:40:14;22.73;;;16.53;;
10509;SDS011;5303;53.266;10.410;2022-09-28T05:42:40;25.60;;;17.47;;
10509;SDS011;5303;53.266;10.410;2022-09-28T05:45:06;23.70;;;17.50;;
10509;SDS011;5303;53.266;10.410;2022-09-28T05:47:35;23.43;;;16.73;;
10509;SDS011;5303;53.266;10.410;2022-09-28T05:50:02;25.23;;;17.33;;
10509;SDS011;5303;53.266;10.410;2022-09-28T05:52:28;23.80;;;16.03;;
10509;SDS011;5303;53.266;10.410;2022-09-28T05:54:54;27.10;;;17.70;;
10509;SDS011;5303;53.266;10.410;2022-09-28T05:57:19;23.73;;;17.20;;
10509;SDS011;5303;53.266;10.410;2022-09-28T05:59:44;27.17;;;18.20;;
10509;SDS011;5303;53.266;10.410;2022-09-28T06:02:09;24.43;;;17.60;;
10509;SDS011;5303;53.266;10.410;2022-09-28T06:04:35;26.73;;;17.90;;
10509;SDS011;5303;53.266;10.410;2022-09-28T06:07:00;21.70;;;15.43;;
10509;SDS011;5303;53.266;10.410;2022-09-28T06:09:25;27.57;;;16.60;;
10509;SDS011;5303;53.266;10.410;2022-09-28T06:11:51;23.10;;;15.93;;
10509;SDS011;5303;53.266;10.410;2022-09-28T06:14:16;29.13;;;18.63;;
10509;SDS011;5303;53.266;10.410;2022-09-28T06:16:42;28.93;;;19.00;;
10509;SDS011;5303;53.266;10.410;2022-09-28T06:19:07;21.93;;;15.67;;
10509;SDS011;5303;53.266;10.410;2022-09-28T06:21:33;29.10;;;18.50;;
10509;SDS011;5303;53.266;10.410;2022-09-28T06:23:58;27.10;;;17.83;;
10509;SDS011;5303;53.266;10.410;2022-09-28T06:26:24;29.70;;;18.53;;
10509;SDS011;5303;53.266;10.410;2022-09-28T06:28:49;22.73;;;16.73;;
10509;SDS011;5303;53.266;10.410;2022-09-28T06:31:15;26.47;;;17.63;;
10509;SDS011;5303;53.266;10.410;2022-09-28T06:33:40;24.73;;;18.43;;
10509;SDS011;5303;53.266;10.410;2022-09-28T06:36:06;26.57;;;18.37;;
10509;SDS011;5303;53.266;10.410;2022-09-28T06:38:32;29.47;;;18.93;;
10509;SDS011;5303;53.266;10.410;2022-09-28T06:40:58;24.80;;;17.67;;
10509;SDS011;5303;53.266;10.410;2022-09-28T06:43:23;24.97;;;17.50;;
10509;SDS011;5303;53.266;10.410;2022-09-28T06:45:50;22.70;;;17.17;;
10509;SDS011;5303;53.266;10.410;2022-09-28T06:48:16;26.07;;;18.40;;
10509;SDS011;5303;53.266;10.410;2022-09-28T06:50:42;29.73;;;19.43;;
10509;SDS011;5303;53.266;10.410;2022-09-28T06:53:09;24.80;;;17.17;;
10509;SDS011;5303;53.266;10.410;2022-09-28T06:55:38;27.53;;;19.90;;
10509;SDS011;5303;53.266;10.410;2022-09-28T06:58:11;26.37;;;17.97;;
10509;SDS011;5303;53.266;10.410;2022-09-28T07:00:38;25.23;;;17.90;;
10509;SDS011;5303;53.266;10.410;2022-09-28T07:03:06;28.70;;;20.37;;
10509;SDS011;5303;53.266;10.410;2022-09-28T07:05:35;23.47;;;17.40;;
10509;SDS011;5303;53.266;10.410;2022-09-28T07:08:05;25.17;;;17.77;;
10509;SDS011;5303;53.266;10.410;2022-09-28T07:10:31;25.83;;;19.40;;
10509;SDS011;5303;53.266;10.410;2022-09-28T07:12:58;25.47;;;18.07;;
10509;SDS011;5303;53.266;10.410;2022-09-28T07:15:26;25.23;;;17.00;;
10509;SDS011;5303;53.266;10.410;2022-09-28T07:17:56;33.47;;;19.47;;
10509;SDS011;5303;53.266;10.410;2022-09-28T07:20:22;26.90;;;19.57;;
10509;SDS011;5303;53.266;10.410;2022-09-28T07:22:55;23.00;;;18.07;;
10509;SDS011;5303;53.266;10.410;2022-09-28T07:25:23;24.73;;;17.53;;
10509;SDS011;5303;53.266;10.410;2022-09-28T07:27:49;23.07;;;16.43;;
10509;SDS011;5303;53.266;10.410;2022-09-28T07:30:15;22.00;;;15.63;;
10509;SDS011;5303;53.266;10.410;2022-09-28T07:32:41;24.17;;;17.27;;
10509;SDS011;5303;53.266;10.410;2022-09-28T07:35:08;21.80;;;16.03;;
10509;SDS011;5303;53.266;10.410;2022-09-28T07:37:34;23.67;;;17.27;;
10509;SDS011;5303;53.266;10.410;2022-09-28T07:40:01;20.17;;;16.10;;
10509;SDS011;5303;53.266;10.410;2022-09-28T07:42:48;22.93;;;16.47;;
10509;SDS011;5303;53.266;10.410;2022-09-28T07:45:14;23.10;;;16.23;;
10509;SDS011;5303;53.266;10.410;2022-09-28T07:47:39;19.53;;;14.80;;
10509;SDS011;5303;53.266;10.410;2022-09-28T07:50:04;23.13;;;15.57;;
10509;SDS011;5303;53.266;10.410;2022-09-28T07:52:30;23.43;;;17.07;;
10509;SDS011;5303;53.266;10.410;2022-09-28T07:54:55;21.67;;;15.47;;
10509;SDS011;5303;53.266;10.410;2022-09-28T07:57:21;21.27;;;15.67;;
10509;SDS011;5303;53.266;10.410;2022-09-28T07:59:47;21.60;;;15.60;;
10509;SDS011;5303;53.266;10.410;2022-09-28T08:02:17;22.20;;;14.93;;
10509;SDS011;5303;53.266;10.410;2022-09-28T08:04:47;19.27;;;15.43;;
10509;SDS011;5303;53.266;10.410;2022-09-28T08:07:13;18.67;;;15.17;;
10509;SDS011;5303;53.266;10.410;2022-09-28T08:09:47;21.70;;;16.27;;
10509;SDS011;5303;53.266;10.410;2022-09-28T08:12:12;20.60;;;15.37;;
10509;SDS011;5303;53.266;10.410;2022-09-28T08:14:38;18.67;;;13.10;;
10509;SDS011;5303;53.266;10.410;2022-09-28T08:17:04;18.53;;;14.13;;
10509;SDS011;5303;53.266;10.410;2022-09-28T08:19:30;18.83;;;14.93;;
10509;SDS011;5303;53.266;10.410;2022-09-28T08:22:15;18.97;;;14.87;;
10509;SDS011;5303;53.266;10.410;2022-09-28T08:24:42;23.17;;;15.93;;
10509;SDS011;5303;53.266;10.410;2022-09-28T08:27:08;21.07;;;15.33;;
10509;SDS011;5303;53.266;10.410;2022-09-28T08:29:34;23.47;;;15.03;;
10509;SDS011;5303;53.266;10.410;2022-09-28T08:32:00;24.23;;;15.37;;
10509;SDS011;5303;53.266;10.410;2022-09-28T08:34:25;22.20;;;15.47;;
10509;SDS011;5303;53.266;10.410;2022-09-28T08:36:51;26.10;;;15.93;;
10509;SDS011;5303;53.266;10.410;2022-09-28T08:39:17;24.90;;;17.20;;
10509;SDS011;5303;53.266;10.410;2022-09-28T08:41:44;24.20;;;16.37;;
10509;SDS011;5303;53.266;10.410;2022-09-28T08:44:15;22.70;;;16.07;;
10509;SDS011;5303;53.266;10.410;2022-09-28T08:46:50;20.63;;;14.90;;
10509;SDS011;5303;53.266;10.410;2022-09-28T08:52:10;21.87;;;15.00;;
10509;SDS011;5303;53.266;10.410;2022-09-28T08:54:50;22.77;;;16.10;;
10509;SDS011;5303;53.266;10.410;2022-09-28T08:57:43;22.40;;;14.67;;
10509;SDS011;5303;53.266;10.410;2022-09-28T09:03:12;18.30;;;13.67;;
10509;SDS011;5303;53.266;10.410;2022-09-28T09:05:51;20.30;;;13.40;;
10509;SDS011;5303;53.266;10.410;2022-09-28T09:11:13;17.07;;;13.07;;
10509;SDS011;5303;53.266;10.410;2022-09-28T09:18:54;21.17;;;15.43;;
10509;SDS011;5303;53.266;10.410;2022-09-28T09:21:40;16.57;;;12.47;;
10509;SDS011;5303;53.266;10.410;2022-09-28T09:24:25;17.73;;;13.60;;
10509;SDS011;5303;53.266;10.410;2022-09-28T09:27:20;20.20;;;14.70;;
10509;SDS011;5303;53.266;10.410;2022-09-28T09:30:18;19.33;;;13.23;;
10509;SDS011;5303;53.266;10.410;2022-09-28T09:32:54;19.70;;;14.63;;
10509;SDS011;5303;53.266;10.410;2022-09-28T09:35:59;16.97;;;13.47;;
10509;SDS011;5303;53.266;10.410;2022-09-28T09:41:56;20.30;;;14.33;;
10509;SDS011;5303;53.266;10.410;2022-09-28T09:44:37;18.13;;;13.43;;
10509;SDS011;5303;53.266;10.410;2022-09-28T09:49:58;16.93;;;13.00;;
10509;SDS011;5303;53.266;10.410;2022-09-28T09:55:21;18.67;;;13.20;;
10509;SDS011;5303;53.266;10.410;2022-09-28T09:57:53;17.97;;;13.57;;
10509;SDS011;5303;53.266;10.410;2022-09-28T10:00:27;17.90;;;12.70;;
10509;SDS011;5303;53.266;10.410;2022-09-28T10:02:53;18.47;;;13.43;;
10509;SDS011;5303;53.266;10.410;2022-09-28T10:05:21;17.73;;;13.93;;
10509;SDS011;5303;53.266;10.410;2022-09-28T10:07:53;15.07;;;12.17;;
10509;SDS011;5303;53.266;10.410;2022-09-28T10:10:35;19.37;;;13.97;;
10509;SDS011;5303;53.266;10.410;2022-09-28T10:13:02;14.87;;;12.10;;
10509;SDS011;5303;53.266;10.410;2022-09-28T10:15:31;19.97;;;12.00;;
10509;SDS011;5303;53.266;10.410;2022-09-28T10:18:00;17.23;;;12.30;;
10509;SDS011;5303;53.266;10.410;2022-09-28T10:20:31;15.30;;;12.53;;
10509;SDS011;5303;53.266;10.410;2022-09-28T10:22:59;16.00;;;12.70;;
10509;SDS011;5303;53.266;10.410;2022-09-28T10:25:27;19.23;;;13.90;;
10509;SDS011;5303;53.266;10.410;2022-09-28T10:27:57;18.27;;;13.60;;
10509;SDS011;5303;53.266;10.410;2022-09-28T10:30:25;18.50;;;13.37;;
10509;SDS011;5303;53.266;10.410;2022-09-28T10:32:51;16.93;;;12.33;;
10509;SDS011;5303;53.266;10.410;2022-09-28T10:35:24;19.10;;;12.83;;
10509;SDS011;5303;53.266;10.410;2022-09-28T10:38:05;14.83;;;11.87;;
10509;SDS011;5303;53.266;10.410;2022-09-28T10:43:37;15.83;;;11.47;;
10509;SDS011;5303;53.266;10.410;2022-09-28T10:46:21;14.10;;;11.60;;
10509;SDS011;5303;53.266;10.410;2022-09-28T10:48:49;14.32;;;11.68;;
10509;SDS011;5303;53.266;10.410;2022-09-28T10:51:18;15.43;;;11.97;;
10509;SDS011;5303;53.266;10.410;2022-09-28T10:53:59;15.87;;;11.47;;
10509;SDS011;5303;53.266;10.410;2022-09-28T10:56:27;15.97;;;11.70;;
10509;SDS011;5303;53.266;10.410;2022-09-28T10:58:54;13.97;;;10.73;;
10509;SDS011;5303;53.266;10.410;2022-09-28T11:01:20;15.20;;;11.23;;
10509;SDS011;5303;53.266;10.410;2022-09-28T11:03:51;14.47;;;11.20;;
10509;SDS011;5303;53.266;10.410;2022-09-28T11:06:38;15.17;;;11.37;;
10509;SDS011;5303;53.266;10.410;2022-09-28T11:11:54;17.33;;;12.33;;
10509;SDS011;5303;53.266;10.410;2022-09-28T11:14:23;14.07;;;11.13;;
10509;SDS011;5303;53.266;10.410;2022-09-28T11:17:11;17.23;;;11.83;;
10509;SDS011;5303;53.266;10.410;2022-09-28T11:19:38;25.43;;;15.27;;
10509;SDS011;5303;53.266;10.410;2022-09-28T11:22:18;55.73;;;18.50;;
10509;SDS011;5303;53.266;10.410;2022-09-28T11:24:45;18.30;;;12.17;;
10509;SDS011;5303;53.266;10.410;2022-09-28T11:27:18;16.63;;;12.47;;
10509;SDS011;5303;53.266;10.410;2022-09-28T11:29:51;16.83;;;12.30;;
10509;SDS011;5303;53.266;10.410;2022-09-28T11:32:22;16.50;;;13.27;;
10509;SDS011;5303;53.266;10.410;2022-09-28T11:34:52;16.90;;;12.73;;
10509;SDS011;5303;53.266;10.410;2022-09-28T11:37:28;15.57;;;12.00;;
10509;SDS011;5303;53.266;10.410;2022-09-28T11:45:28;15.60;;;11.13;;
10509;SDS011;5303;53.266;10.410;2022-09-28T11:48:05;14.87;;;11.03;;
10509;SDS011;5303;53.266;10.410;2022-09-28T11:50:47;14.10;;;9.30;;
10509;SDS011;5303;53.266;10.410;2022-09-28T11:53:18;13.07;;;9.80;;
10509;SDS011;5303;53.266;10.410;2022-09-28T11:55:53;14.47;;;10.53;;
10509;SDS011;5303;53.266;10.410;2022-09-28T11:58:38;16.17;;;11.00;;
10509;SDS011;5303;53.266;10.410;2022-09-28T12:04:05;12.47;;;9.60;;
10509;SDS011;5303;53.266;10.410;2022-09-28T12:06:39;11.88;;;10.32;;
10509;SDS011;5303;53.266;10.410;2022-09-28T12:09:14;12.90;;;9.67;;
10509;SDS011;5303;53.266;10.410;2022-09-28T12:11:47;13.43;;;9.87;;
10509;SDS011;5303;53.266;10.410;2022-09-28T12:14:28;12.00;;;9.50;;
10509;SDS011;5303;53.266;10.410;2022-09-28T12:17:02;11.03;;;9.87;;
10509;SDS011;5303;53.266;10.410;2022-09-28T12:19:37;12.57;;;10.20;;
10509;SDS011;5303;53.266;10.410;2022-09-28T12:22:22;12.70;;;10.10;;
10509;SDS011;5303;53.266;10.410;2022-09-28T12:24:54;15.23;;;10.83;;
10509;SDS011;5303;53.266;10.410;2022-09-28T12:32:55;12.93;;;10.27;;
10509;SDS011;5303;53.266;10.410;2022-09-28T12:38:18;11.43;;;9.33;;
10509;SDS011;5303;53.266;10.410;2022-09-28T12:43:51;10.47;;;7.23;;
10509;SDS011;5303;53.266;10.410;2022-09-28T12:46:41;8.87;;;7.30;;
10509;SDS011;5303;53.266;10.410;2022-09-28T12:51:57;8.80;;;6.67;;
10509;SDS011;5303;53.266;10.410;2022-09-28T12:54:44;13.10;;;7.60;;
10509;SDS011;5303;53.266;10.410;2022-09-28T13:00:18;7.13;;;6.03;;
10509;SDS011;5303;53.266;10.410;2022-09-28T13:02:51;7.07;;;6.00;;
10509;SDS011;5303;53.266;10.410;2022-09-28T13:08:21;9.53;;;5.60;;
10509;SDS011;5303;53.266;10.410;2022-09-28T13:11:21;11.03;;;6.07;;
10509;SDS011;5303;53.266;10.410;2022-09-28T13:16:33;9.87;;;5.60;;
10509;SDS011;5303;53.266;10.410;2022-09-28T13:24:10;8.47;;;5.40;;
10509;SDS011;5303;53.266;10.410;2022-09-28T13:26:42;7.03;;;5.17;;
10509;SDS011;5303;53.266;10.410;2022-09-28T13:29:13;6.00;;;5.03;;
10509;SDS011;5303;53.266;10.410;2022-09-28T13:31:44;6.32;;;5.50;;
10509;SDS011;5303;53.266;10.410;2022-09-28T13:34:14;7.47;;;5.33;;
10509;SDS011;5303;53.266;10.410;2022-09-28T13:36:44;6.80;;;5.17;;
10509;SDS011;5303;53.266;10.410;2022-09-28T13:42:27;7.65;;;5.95;;
10509;SDS011;5303;53.266;10.410;2022-09-28T13:53:12;9.73;;;6.50;;
10509;SDS011;5303;53.266;10.410;2022-09-28T13:58:24;7.13;;;5.90;;
10509;SDS011;5303;53.266;10.410;2022-09-28T14:01:18;7.83;;;6.07;;
10509;SDS011;5303;53.266;10.410;2022-09-28T14:06:34;7.30;;;6.40;;
10509;SDS011;5303;53.266;10.410;2022-09-28T14:16:35;10.30;;;6.53;;
10509;SDS011;5303;53.266;10.410;2022-09-28T14:27:42;8.63;;;6.90;;
10509;SDS011;5303;53.266;10.410;2022-09-28T14:30:23;8.13;;;6.23;;
10509;SDS011;5303;53.266;10.410;2022-09-28T14:32:55;6.00;;;5.07;;
10509;SDS011;5303;53.266;10.410;2022-09-28T14:37:58;6.70;;;5.87;;
10509;SDS011;5303;53.266;10.410;2022-09-28T14:40:55;6.37;;;5.30;;
10509;SDS011;5303;53.266;10.410;2022-09-28T14:43:55;7.22;;;6.30;;
10509;SDS011;5303;53.266;10.410;2022-09-28T14:46:26;8.37;;;5.47;;
10509;SDS011;5303;53.266;10.410;2022-09-28T14:48:55;6.60;;;5.40;;
10509;SDS011;5303;53.266;10.410;2022-09-28T14:53:51;6.30;;;5.70;;
10509;SDS011;5303;53.266;10.410;2022-09-28T14:56:20;12.60;;;6.30;;
10509;SDS011;5303;53.266;10.410;2022-09-28T14:58:46;6.80;;;5.60;;
10509;SDS011;5303;53.266;10.410;2022-09-28T15:01:18;8.07;;;6.40;;
10509;SDS011;5303;53.266;10.410;2022-09-28T15:03:45;8.30;;;6.20;;
10509;SDS011;5303;53.266;10.410;2022-09-28T15:06:14;6.90;;;6.20;;
10509;SDS011;5303;53.266;10.410;2022-09-28T15:08:40;6.20;;;5.60;;
10509;SDS011;5303;53.266;10.410;2022-09-28T15:11:08;7.00;;;5.80;;
10509;SDS011;5303;53.266;10.410;2022-09-28T15:13:37;8.27;;;6.10;;
10509;SDS011;5303;53.266;10.410;2022-09-28T15:16:05;7.57;;;6.30;;
10509;SDS011;5303;53.266;10.410;2022-09-28T15:21:38;7.17;;;5.83;;
10509;SDS011;5303;53.266;10.410;2022-09-28T15:24:25;8.57;;;5.50;;
10509;SDS011;5303;53.266;10.410;2022-09-28T15:26:55;8.67;;;6.50;;
10509;SDS011;5303;53.266;10.410;2022-09-28T15:29:21;8.27;;;5.80;;
10509;SDS011;5303;53.266;10.410;2022-09-28T15:31:54;7.07;;;6.20;;
10509;SDS011;5303;53.266;10.410;2022-09-28T15:34:27;8.90;;;6.00;;
10509;SDS011;5303;53.266;10.410;2022-09-28T15:37:14;8.87;;;6.30;;
10509;SDS011;5303;53.266;10.410;2022-09-28T15:39:41;6.50;;;5.80;;
10509;SDS011;5303;53.266;10.410;2022-09-28T15:42:07;7.77;;;5.23;;
10509;SDS011;5303;53.266;10.410;2022-09-28T15:44:33;6.10;;;5.50;;
10509;SDS011;5303;53.266;10.410;2022-09-28T15:47:23;8.77;;;5.60;;
10509;SDS011;5303;53.266;10.410;2022-09-28T15:52:31;6.13;;;5.23;;
10509;SDS011;5303;53.266;10.410;2022-09-28T15:55:04;9.03;;;5.43;;
10509;SDS011;5303;53.266;10.410;2022-09-28T15:57:41;8.00;;;5.30;;
10509;SDS011;5303;53.266;10.410;2022-09-28T16:00:21;6.87;;;5.83;;
10509;SDS011;5303;53.266;10.410;2022-09-28T16:02:56;5.53;;;5.03;;
10509;SDS011;5303;53.266;10.410;2022-09-28T16:11:19;6.30;;;5.37;;
10509;SDS011;5303;53.266;10.410;2022-09-28T16:13:53;7.10;;;5.17;;
10509;SDS011;5303;53.266;10.410;2022-09-28T16:16:32;5.73;;;5.13;;
10509;SDS011;5303;53.266;10.410;2022-09-28T16:19:01;6.93;;;5.40;;
10509;SDS011;5303;53.266;10.410;2022-09-28T16:21:30;8.03;;;5.97;;
10509;SDS011;5303;53.266;10.410;2022-09-28T16:24:18;5.90;;;5.30;;
10509;SDS011;5303;53.266;10.410;2022-09-28T16:26:53;6.10;;;4.87;;
10509;SDS011;5303;53.266;10.410;2022-09-28T16:29:26;6.30;;;4.90;;
10509;SDS011;5303;53.266;10.410;2022-09-28T16:31:59;7.00;;;5.73;;
10509;SDS011;5303;53.266;10.410;2022-09-28T16:35:15;6.30;;;5.23;;
10509;SDS011;5303;53.266;10.410;2022-09-28T16:37:43;5.20;;;4.70;;
10509;SDS011;5303;53.266;10.410;2022-09-28T16:40:09;7.13;;;5.60;;
10509;SDS011;5303;53.266;10.410;2022-09-28T16:42:36;6.53;;;5.00;;
10509;SDS011;5303;53.266;10.410;2022-09-28T16:45:08;6.63;;;6.00;;
10509;SDS011;5303;53.266;10.410;2022-09-28T16:47:41;6.70;;;6.10;;
10509;SDS011;5303;53.266;10.410;2022-09-28T16:50:06;9.83;;;6.27;;
10509;SDS011;5303;53.266;10.410;2022-09-28T16:52:35;7.10;;;6.43;;
10509;SDS011;5303;53.266;10.410;2022-09-28T16:55:19;9.57;;;6.27;;
10509;SDS011;5303;53.266;10.410;2022-09-28T16:57:44;6.93;;;6.23;;
10509;SDS011;5303;53.266;10.410;2022-09-28T17:00:19;6.87;;;6.10;;
10509;SDS011;5303;53.266;10.410;2022-09-28T17:02:47;7.63;;;6.37;;
10509;SDS011;5303;53.266;10.410;2022-09-28T17:05:14;8.02;;;7.22;;
10509;SDS011;5303;53.266;10.410;2022-09-28T17:07:40;7.50;;;6.67;;
10509;SDS011;5303;53.266;10.410;2022-09-28T17:10:17;8.37;;;7.47;;